createdAt,value
2022-07-27T00:04:43.464Z,15.47
2022-07-27T00:07:53.411Z,16.40
2022-07-27T00:12:12.774Z,16.65
2022-07-27T00:15:20.478Z,17.83
2022-07-27T00:19:38.805Z,19.40
2022-07-27T00:22:45.127Z,17.73
2022-07-27T00:25:53.638Z,25.50
2022-07-27T00:28:59.882Z,15.33
2022-07-27T00:32:12.318Z,15.97
2022-07-27T00:35:19.395Z,16.33
2022-07-27T00:38:25.408Z,18.43
2022-07-27T00:41:34.451Z,16.47
2022-07-27T00:44:39.812Z,18.57
2022-07-27T00:47:46.280Z,18.13
2022-07-27T00:50:52.005Z,18.03
2022-07-27T00:53:58.913Z,16.13
2022-07-27T00:57:07.462Z,17.30
2022-07-27T01:00:14.317Z,21.00
2022-07-27T01:03:19.672Z,20.53
2022-07-27T01:06:29.599Z,23.20
2022-07-27T01:09:51.709Z,16.83
2022-07-27T01:13:00.906Z,19.57
2022-07-27T01:16:09.056Z,18.67
2022-07-27T01:19:18.087Z,19.63
2022-07-27T01:22:26.281Z,20.17
2022-07-27T01:25:32.506Z,22.07
2022-07-27T01:28:37.843Z,22.30
2022-07-27T01:31:44.779Z,22.83
2022-07-27T01:34:50.415Z,18.90
2022-07-27T01:38:01.067Z,23.53
2022-07-27T01:41:07.348Z,19.70
2022-07-27T01:44:13.570Z,19.33
2022-07-27T01:47:19.766Z,16.73
2022-07-27T01:50:25.181Z,17.80
2022-07-27T01:53:34.485Z,19.43
2022-07-27T01:56:39.875Z,18.07
2022-07-27T01:59:46.346Z,19.53
2022-07-27T02:02:51.974Z,21.27
2022-07-27T02:05:58.426Z,19.10
2022-07-27T02:09:06.816Z,18.20
2022-07-27T02:12:28.783Z,18.00
2022-07-27T02:15:42.997Z,19.87
2022-07-27T02:18:51.060Z,19.33
2022-07-27T02:21:56.668Z,21.07
2022-07-27T02:25:06.460Z,19.47
2022-07-27T02:28:12.616Z,20.03
2022-07-27T02:31:19.058Z,19.73
2022-07-27T02:34:24.377Z,18.47
2022-07-27T02:37:30.873Z,21.40
2022-07-27T02:40:39.470Z,18.50
2022-07-27T02:43:45.663Z,22.03
2022-07-27T02:46:51.301Z,18.57
2022-07-27T02:49:57.741Z,20.10
2022-07-27T02:53:03.375Z,20.57
2022-07-27T02:56:12.520Z,21.83
2022-07-27T02:59:18.293Z,19.73
2022-07-27T03:02:24.529Z,17.77
2022-07-27T03:05:30.172Z,20.33
2022-07-27T03:08:36.526Z,19.07
2022-07-27T03:11:45.010Z,20.40
2022-07-27T03:14:51.311Z,19.23
2022-07-27T03:17:57.209Z,23.03
2022-07-27T03:21:04.127Z,21.47
2022-07-27T03:24:10.174Z,20.90
2022-07-27T03:27:19.282Z,22.80
2022-07-27T03:30:24.696Z,23.83
2022-07-27T03:33:30.997Z,24.70
2022-07-27T03:36:36.523Z,20.00
2022-07-27T03:39:43.026Z,15.80
2022-07-27T03:42:51.610Z,16.80
2022-07-27T03:45:57.903Z,19.80
2022-07-27T03:49:03.467Z,16.83
2022-07-27T03:52:21.255Z,15.37
2022-07-27T03:55:27.886Z,16.17
2022-07-27T03:58:37.908Z,14.07
2022-07-27T04:01:43.373Z,15.23
2022-07-27T04:04:49.904Z,12.47
2022-07-27T04:07:55.866Z,12.57
2022-07-27T04:11:03.080Z,11.20
2022-07-27T04:14:12.722Z,11.63
2022-07-27T04:17:54.169Z,14.50
2022-07-27T04:20:45.074Z,10.73
2022-07-27T04:23:51.540Z,9.90
2022-07-27T04:26:57.212Z,12.73
2022-07-27T04:30:09.722Z,9.33
2022-07-27T04:33:15.591Z,10.60
2022-07-27T04:36:21.990Z,8.77
2022-07-27T04:39:27.478Z,8.73
2022-07-27T04:42:33.822Z,10.23
2022-07-27T04:45:42.076Z,13.87
2022-07-27T04:48:49.062Z,9.20
2022-07-27T04:51:57.596Z,10.03
2022-07-27T04:55:03.816Z,9.30
2022-07-27T04:58:10.848Z,11.53
2022-07-27T05:01:19.972Z,8.40
2022-07-27T05:04:25.474Z,9.70
2022-07-27T05:07:32.075Z,9.03
2022-07-27T05:10:37.755Z,10.37
2022-07-27T05:13:44.753Z,9.10
2022-07-27T05:16:53.090Z,7.70
2022-07-27T05:19:59.420Z,8.27
2022-07-27T05:23:06.090Z,7.60
2022-07-27T05:26:12.543Z,7.40
2022-07-27T05:29:17.936Z,8.43
2022-07-27T05:32:27.128Z,7.37
2022-07-27T05:35:32.624Z,8.63
2022-07-27T05:38:41.274Z,7.17
2022-07-27T05:41:46.698Z,9.37
2022-07-27T05:44:58.049Z,7.20
2022-07-27T05:48:06.568Z,7.20
2022-07-27T05:51:12.812Z,6.67
2022-07-27T05:54:19.100Z,7.40
2022-07-27T05:57:25.368Z,6.33
2022-07-27T06:00:32.729Z,7.80
2022-07-27T06:03:43.257Z,6.87
2022-07-27T06:07:04.569Z,7.97
2022-07-27T06:10:11.827Z,8.40
2022-07-27T06:13:17.298Z,10.00
2022-07-27T06:16:23.635Z,7.87
2022-07-27T06:19:36.379Z,7.43
2022-07-27T06:22:50.631Z,10.07
2022-07-27T06:25:56.041Z,12.50
2022-07-27T06:29:09.962Z,7.20
2022-07-27T06:32:16.833Z,7.90
2022-07-27T06:36:33.939Z,6.65
2022-07-27T06:39:42.445Z,6.03
2022-07-27T06:47:33.743Z,9.63
2022-07-27T06:50:39.984Z,8.77
2022-07-27T06:53:46.184Z,6.33
2022-07-27T06:56:55.477Z,8.13
2022-07-27T07:00:00.981Z,6.73
2022-07-27T07:03:09.323Z,10.30
2022-07-27T07:06:15.098Z,6.10
2022-07-27T07:09:22.375Z,6.67
2022-07-27T07:12:32.465Z,7.68
2022-07-27T07:15:40.708Z,6.67
2022-07-27T07:18:51.795Z,4.97
2022-07-27T07:21:58.776Z,5.57
2022-07-27T07:25:04.234Z,5.17
2022-07-27T07:28:13.483Z,5.27
2022-07-27T07:31:20.622Z,7.00
2022-07-27T07:34:27.566Z,5.17
2022-07-27T07:37:33.828Z,9.47
2022-07-27T07:40:43.851Z,6.65
2022-07-27T07:43:53.565Z,5.30
2022-07-27T07:47:00.196Z,5.85
2022-07-27T07:50:09.966Z,6.67
2022-07-27T07:53:17.947Z,5.60
2022-07-27T07:56:23.659Z,6.18
2022-07-27T07:59:32.734Z,5.28
2022-07-27T08:02:46.531Z,6.70
2022-07-27T08:05:52.788Z,6.35
2022-07-27T08:08:58.679Z,9.85
2022-07-27T08:12:05.568Z,9.52
2022-07-27T08:15:15.087Z,7.55
2022-07-27T08:18:22.029Z,11.35
2022-07-27T08:21:29.135Z,9.65
2022-07-27T08:24:44.762Z,7.82
2022-07-27T08:27:50.133Z,7.40
2022-07-27T08:30:59.593Z,6.85
2022-07-27T08:34:06.170Z,9.15
2022-07-27T08:37:15.537Z,7.47
2022-07-27T08:40:41.388Z,8.27
2022-07-27T08:43:52.070Z,8.82
2022-07-27T08:47:01.133Z,12.98
2022-07-27T08:50:23.437Z,12.45
2022-07-27T08:53:52.181Z,12.60
2022-07-27T08:57:00.271Z,12.77
2022-07-27T09:00:08.023Z,13.10
2022-07-27T09:03:20.725Z,13.13
2022-07-27T09:06:43.848Z,11.30
2022-07-27T09:09:50.573Z,11.70
2022-07-27T09:12:56.042Z,11.38
2022-07-27T09:16:20.899Z,12.65
2022-07-27T09:19:29.287Z,15.63
2022-07-27T09:22:51.120Z,14.05
2022-07-27T09:26:29.608Z,12.35
2022-07-27T09:29:38.550Z,12.73
2022-07-27T09:32:55.644Z,13.30
2022-07-27T09:36:06.816Z,11.70
2022-07-27T09:39:12.262Z,14.85
2022-07-27T09:42:59.225Z,12.98
2022-07-27T09:45:51.473Z,12.55
2022-07-27T09:48:58.547Z,12.15
2022-07-27T09:52:07.395Z,13.25
2022-07-27T09:55:14.496Z,11.90
2022-07-27T09:58:20.023Z,12.57
2022-07-27T10:01:28.106Z,11.23
2022-07-27T10:04:36.821Z,13.45
2022-07-27T10:07:46.018Z,12.50
2022-07-27T10:10:52.077Z,13.68
2022-07-27T10:14:00.476Z,10.88
2022-07-27T10:17:12.953Z,12.10
2022-07-27T10:20:21.741Z,11.73
2022-07-27T10:23:35.973Z,12.15
2022-07-27T10:26:44.040Z,11.00
2022-07-27T10:29:50.880Z,10.60
2022-07-27T10:32:57.312Z,9.88
2022-07-27T10:36:04.437Z,9.80
2022-07-27T10:39:13.581Z,10.27
2022-07-27T10:42:35.493Z,9.93
2022-07-27T10:45:59.978Z,11.07
2022-07-27T10:49:21.729Z,9.30
2022-07-27T10:52:45.306Z,11.45
2022-07-27T11:00:17.807Z,8.93
2022-07-27T11:03:24.027Z,8.32
2022-07-27T11:06:48.134Z,8.80
2022-07-27T11:10:05.227Z,10.50
2022-07-27T11:13:10.938Z,9.20
2022-07-27T11:16:28.520Z,10.98
2022-07-27T11:19:33.997Z,7.88
2022-07-27T11:26:07.395Z,8.77
2022-07-27T11:29:16.047Z,7.53
2022-07-27T11:32:25.232Z,9.43
2022-07-27T11:35:31.472Z,9.77
2022-07-27T11:38:48.853Z,9.13
2022-07-27T11:42:11.883Z,7.30
2022-07-27T11:45:31.787Z,8.20
2022-07-27T11:49:05.087Z,8.13
2022-07-27T11:52:09.678Z,8.00
2022-07-27T11:55:15.968Z,8.43
2022-07-27T11:58:21.267Z,8.00
2022-07-27T12:01:32.443Z,8.35
2022-07-27T12:04:42.148Z,6.68
2022-07-27T12:07:48.474Z,9.27
2022-07-27T12:11:01.190Z,7.43
2022-07-27T12:14:15.219Z,6.65
2022-07-27T12:17:31.848Z,6.30
2022-07-27T12:20:40.927Z,5.90
2022-07-27T12:23:52.898Z,5.72
2022-07-27T12:27:07.341Z,7.07
2022-07-27T12:30:15.694Z,6.88
2022-07-27T12:33:30.039Z,6.55
2022-07-27T12:36:44.575Z,6.35
2022-07-27T12:39:53.397Z,6.47
2022-07-27T12:43:00.762Z,8.75
2022-07-27T12:46:15.848Z,5.45
2022-07-27T12:49:21.332Z,5.88
2022-07-27T12:52:30.665Z,6.38
2022-07-27T12:55:36.252Z,5.45
2022-07-27T12:58:42.584Z,5.88
2022-07-27T13:01:48.276Z,8.30
2022-07-27T13:04:55.161Z,5.47
2022-07-27T13:08:03.586Z,5.68
2022-07-27T13:11:10.112Z,4.72
2022-07-27T13:14:19.412Z,4.25
2022-07-27T13:17:25.827Z,5.10
2022-07-27T13:20:31.428Z,4.57
2022-07-27T13:23:40.583Z,5.30
2022-07-27T13:26:45.943Z,4.97
2022-07-27T13:29:52.154Z,5.95
2022-07-27T13:32:57.796Z,4.60
2022-07-27T13:36:05.355Z,5.07
2022-07-27T13:39:15.567Z,3.92
2022-07-27T13:42:22.032Z,4.68
2022-07-27T13:45:28.309Z,4.63
2022-07-27T13:48:48.511Z,5.30
2022-07-27T13:51:54.001Z,4.60
2022-07-27T13:55:03.088Z,4.13
2022-07-27T13:58:14.133Z,4.30
2022-07-27T14:01:20.400Z,4.15
2022-07-27T14:04:28.556Z,5.70
2022-07-27T14:07:35.055Z,5.03
2022-07-27T14:10:48.347Z,5.55
2022-07-27T14:13:57.886Z,4.68
2022-07-27T14:17:03.375Z,6.88
2022-07-27T14:20:15.195Z,4.03
2022-07-27T14:23:20.598Z,4.93
2022-07-27T14:26:29.618Z,3.80
2022-07-27T14:29:34.976Z,3.70
2022-07-27T14:32:41.176Z,3.72
2022-07-27T14:35:47.437Z,3.85
2022-07-27T14:38:53.755Z,3.47
2022-07-27T14:42:03.621Z,3.28
2022-07-27T14:45:11.823Z,3.90
2022-07-27T14:48:25.293Z,3.92
2022-07-27T14:51:34.614Z,3.30
2022-07-27T14:54:39.968Z,3.03
2022-07-27T14:57:49.351Z,3.13
2022-07-27T15:00:55.666Z,4.05
2022-07-27T15:04:03.300Z,2.83
2022-07-27T15:07:09.062Z,4.88
2022-07-27T15:10:15.626Z,2.35
2022-07-27T15:13:23.854Z,3.03
2022-07-27T15:16:31.346Z,2.30
2022-07-27T15:19:36.833Z,2.72
2022-07-27T15:22:43.394Z,2.53
2022-07-27T15:25:49.075Z,3.13
2022-07-27T15:28:58.364Z,2.15
2022-07-27T15:32:03.971Z,2.95
2022-07-27T15:35:10.837Z,2.05
2022-07-27T15:38:16.192Z,2.35
2022-07-27T15:41:22.475Z,2.10
2022-07-27T15:44:30.780Z,2.72
2022-07-27T15:47:37.594Z,2.55
2022-07-27T15:50:48.757Z,1.77
2022-07-27T15:53:56.145Z,2.85
2022-07-27T15:57:03.131Z,2.22
2022-07-27T16:00:14.052Z,2.00
2022-07-27T16:03:21.722Z,2.13
2022-07-27T16:06:28.079Z,2.78
2022-07-27T16:09:33.525Z,2.15
2022-07-27T16:12:39.924Z,1.65
2022-07-27T16:16:18.632Z,1.90
2022-07-27T16:19:24.922Z,2.25
2022-07-27T16:22:32.137Z,2.53
2022-07-27T16:26:02.019Z,4.68
2022-07-27T16:29:03.944Z,1.80
2022-07-27T16:32:13.274Z,2.05
2022-07-27T16:35:18.634Z,2.22
2022-07-27T16:38:25.836Z,4.82
2022-07-27T16:41:31.301Z,4.13
2022-07-27T16:44:39.945Z,3.25
2022-07-27T16:47:48.282Z,2.33
2022-07-27T16:50:54.548Z,3.58
2022-07-27T16:54:00.016Z,6.05
2022-07-27T16:57:08.195Z,2.50
2022-07-27T17:00:14.477Z,2.17
2022-07-27T17:03:24.619Z,3.53
2022-07-27T17:06:32.038Z,1.98
2022-07-27T17:09:38.300Z,2.75
2022-07-27T17:12:43.932Z,2.88
2022-07-27T17:15:55.024Z,3.67
2022-07-27T17:19:03.232Z,4.90
2022-07-27T17:22:09.743Z,2.35
2022-07-27T17:25:15.221Z,2.40
2022-07-27T17:28:21.469Z,2.70
2022-07-27T17:31:26.943Z,3.45
2022-07-27T17:34:36.005Z,4.20
2022-07-27T17:38:04.445Z,2.30
2022-07-27T17:41:08.000Z,2.08
2022-07-27T17:44:13.378Z,2.97
2022-07-27T17:47:19.646Z,3.53
2022-07-27T17:50:27.909Z,3.10
2022-07-27T17:53:34.194Z,3.00
2022-07-27T17:56:39.636Z,3.37
2022-07-27T17:59:46.623Z,2.97
2022-07-27T18:02:52.625Z,4.83
2022-07-27T18:06:03.393Z,3.13
2022-07-27T18:09:09.208Z,3.03
2022-07-27T18:12:21.591Z,3.07
2022-07-27T18:15:42.832Z,5.87
2022-07-27T18:18:49.071Z,2.93
2022-07-27T18:21:57.537Z,2.73
2022-07-27T18:25:03.789Z,3.03
2022-07-27T18:28:09.205Z,3.00
2022-07-27T18:31:18.331Z,4.30
2022-07-27T18:34:23.757Z,3.33
2022-07-27T18:37:32.840Z,3.10
2022-07-27T18:40:38.316Z,4.67
2022-07-27T18:43:51.177Z,3.13
2022-07-27T18:46:56.631Z,3.60
2022-07-27T18:50:03.223Z,4.60
2022-07-27T18:53:12.065Z,3.50
2022-07-27T18:56:18.497Z,3.00
2022-07-27T18:59:24.004Z,3.13
2022-07-27T19:02:35.835Z,3.17
2022-07-27T19:05:45.048Z,2.67
2022-07-27T19:08:54.953Z,2.97
2022-07-27T19:12:01.835Z,2.70
2022-07-27T19:15:11.160Z,3.30
2022-07-27T19:18:16.551Z,3.53
2022-07-27T19:21:23.249Z,3.00
2022-07-27T19:24:32.022Z,3.07
2022-07-27T19:27:38.536Z,4.90
2022-07-27T19:30:44.332Z,3.47
2022-07-27T19:33:51.267Z,3.63
2022-07-27T19:36:57.127Z,3.10
2022-07-27T19:40:33.727Z,3.00
2022-07-27T19:43:33.768Z,3.37
2022-07-27T19:46:41.347Z,4.57
2022-07-27T19:49:46.759Z,4.47
2022-07-27T19:52:53.285Z,3.97
2022-07-27T19:56:03.045Z,4.07
2022-07-27T19:59:10.002Z,5.13
2022-07-27T20:02:16.910Z,5.87
2022-07-27T20:05:23.292Z,4.73
2022-07-27T20:08:29.803Z,4.87
2022-07-27T20:11:39.323Z,5.30
2022-07-27T20:14:44.758Z,6.80
2022-07-27T20:17:51.166Z,5.53
2022-07-27T20:20:57.141Z,4.47
2022-07-27T20:24:04.606Z,5.73
2022-07-27T20:27:13.245Z,3.70
2022-07-27T20:30:21.231Z,4.17
2022-07-27T20:33:31.070Z,3.50
2022-07-27T20:36:38.984Z,5.27
2022-07-27T20:39:44.663Z,3.67
2022-07-27T20:42:53.690Z,5.20
2022-07-27T20:45:59.510Z,4.33
2022-07-27T20:49:08.222Z,2.90
2022-07-27T20:52:13.642Z,2.50
2022-07-27T20:55:19.928Z,5.30
2022-07-27T20:58:28.084Z,4.87
2022-07-27T21:01:34.447Z,3.87
2022-07-27T21:04:40.224Z,2.73
2022-07-27T21:07:46.860Z,2.67
2022-07-27T21:10:52.535Z,5.43
2022-07-27T21:14:03.040Z,3.13
2022-07-27T21:17:08.417Z,4.17
2022-07-27T21:20:15.779Z,2.97
2022-07-27T21:23:37.082Z,4.83
2022-07-27T21:26:43.417Z,3.73
2022-07-27T21:29:52.087Z,3.50
2022-07-27T21:32:58.341Z,4.83
2022-07-27T21:36:04.070Z,4.27
2022-07-27T21:39:10.692Z,5.10
2022-07-27T21:42:17.282Z,3.33
2022-07-27T21:45:26.802Z,4.87
2022-07-27T21:48:32.442Z,2.57
2022-07-27T21:51:39.288Z,2.43
2022-07-27T21:54:44.958Z,2.90
2022-07-27T21:57:51.497Z,3.53
2022-07-27T22:01:00.044Z,3.63
2022-07-27T22:04:08.665Z,4.03
2022-07-27T22:07:19.399Z,3.47
2022-07-27T22:10:25.955Z,3.17
2022-07-27T22:13:31.684Z,2.33
2022-07-27T22:16:41.408Z,4.43
2022-07-27T22:19:47.017Z,2.50
2022-07-27T22:22:53.954Z,3.37
2022-07-27T22:25:59.862Z,3.07
2022-07-27T22:29:08.560Z,3.23
2022-07-27T22:32:16.818Z,4.00
2022-07-27T22:35:23.122Z,2.37
2022-07-27T22:38:28.501Z,4.53
2022-07-27T22:41:34.749Z,2.10
2022-07-27T22:44:42.647Z,3.63
2022-07-27T22:47:51.766Z,3.10
2022-07-27T22:50:57.267Z,2.97
2022-07-27T22:54:03.765Z,3.27
2022-07-27T22:57:09.907Z,4.20
2022-07-27T23:00:18.781Z,4.83
2022-07-27T23:03:27.288Z,3.30
2022-07-27T23:06:33.548Z,4.90
2022-07-27T23:09:38.931Z,4.13
2022-07-27T23:12:45.432Z,5.53
2022-07-27T23:15:51.116Z,6.07
2022-07-27T23:19:00.188Z,3.07
2022-07-27T23:22:07.322Z,4.67
2022-07-27T23:25:17.918Z,3.93
2022-07-27T23:28:27.400Z,4.87
2022-07-27T23:31:33.803Z,4.00
2022-07-27T23:34:42.311Z,3.87
2022-07-27T23:37:48.531Z,5.70
2022-07-27T23:40:54.329Z,3.83
2022-07-27T23:44:00.715Z,2.27
2022-07-27T23:47:07.545Z,2.47
2022-07-27T23:50:18.053Z,4.70
2022-07-27T23:53:24.118Z,4.23
2022-07-27T23:56:30.592Z,2.70
2022-07-27T23:59:35.956Z,4.50
